sensor_id;sensor_type;location;lat;lon;timestamp;P1;durP1;ratioP1;P2;durP2;ratioP2
68976;SDS011;56029;52.568;13.588;2023-03-01T00:02:03;16.73;;;7.70;;
68976;SDS011;56029;52.568;13.588;2023-03-01T00:04:29;16.48;;;8.13;;
68976;SDS011;56029;52.568;13.588;2023-03-01T00:06:56;16.63;;;7.85;;
68976;SDS011;56029;52.568;13.588;2023-03-01T00:09:21;17.07;;;7.63;;
68976;SDS011;56029;52.568;13.588;2023-03-01T00:11:47;14.82;;;7.07;;
68976;SDS011;56029;52.568;13.588;2023-03-01T00:14:13;17.40;;;7.30;;
68976;SDS011;56029;52.568;13.588;2023-03-01T00:16:40;15.20;;;7.05;;
68976;SDS011;56029;52.568;13.588;2023-03-01T00:19:09;16.08;;;7.22;;
68976;SDS011;56029;52.568;13.588;2023-03-01T00:21:37;16.38;;;6.88;;
68976;SDS011;56029;52.568;13.588;2023-03-01T00:24:03;12.50;;;6.10;;
68976;SDS011;56029;52.568;13.588;2023-03-01T00:26:29;14.40;;;6.82;;
68976;SDS011;56029;52.568;13.588;2023-03-01T00:28:56;12.95;;;6.43;;
68976;SDS011;56029;52.568;13.588;2023-03-01T00:31:24;14.88;;;5.88;;
68976;SDS011;56029;52.568;13.588;2023-03-01T00:33:54;15.82;;;6.90;;
68976;SDS011;56029;52.568;13.588;2023-03-01T00:36:22;14.45;;;6.55;;
68976;SDS011;56029;52.568;13.588;2023-03-01T00:38:49;14.80;;;6.10;;
68976;SDS011;56029;52.568;13.588;2023-03-01T00:41:16;15.32;;;7.03;;
68976;SDS011;56029;52.568;13.588;2023-03-01T00:43:43;14.07;;;7.18;;
68976;SDS011;56029;52.568;13.588;2023-03-01T00:46:11;18.63;;;6.93;;
68976;SDS011;56029;52.568;13.588;2023-03-01T00:48:38;12.93;;;6.40;;
68976;SDS011;56029;52.568;13.588;2023-03-01T00:51:23;14.48;;;6.35;;
68976;SDS011;56029;52.568;13.588;2023-03-01T00:53:52;17.10;;;6.93;;
68976;SDS011;56029;52.568;13.588;2023-03-01T00:56:18;16.33;;;6.90;;
68976;SDS011;56029;52.568;13.588;2023-03-01T00:58:44;16.37;;;7.40;;
68976;SDS011;56029;52.568;13.588;2023-03-01T01:01:10;15.55;;;6.93;;
68976;SDS011;56029;52.568;13.588;2023-03-01T01:03:48;17.08;;;7.38;;
68976;SDS011;56029;52.568;13.588;2023-03-01T01:06:22;17.10;;;7.45;;
68976;SDS011;56029;52.568;13.588;2023-03-01T01:08:52;18.03;;;6.73;;
68976;SDS011;56029;52.568;13.588;2023-03-01T01:11:19;18.50;;;7.45;;
68976;SDS011;56029;52.568;13.588;2023-03-01T01:13:46;16.05;;;7.30;;
68976;SDS011;56029;52.568;13.588;2023-03-01T01:16:12;15.32;;;7.10;;
68976;SDS011;56029;52.568;13.588;2023-03-01T01:18:42;16.52;;;7.43;;
68976;SDS011;56029;52.568;13.588;2023-03-01T01:21:10;14.47;;;6.60;;
68976;SDS011;56029;52.568;13.588;2023-03-01T01:23:39;15.85;;;7.45;;
68976;SDS011;56029;52.568;13.588;2023-03-01T01:26:14;16.63;;;7.40;;
68976;SDS011;56029;52.568;13.588;2023-03-01T01:28:47;15.35;;;7.22;;
68976;SDS011;56029;52.568;13.588;2023-03-01T01:31:13;15.90;;;7.63;;
68976;SDS011;56029;52.568;13.588;2023-03-01T01:33:43;15.93;;;7.00;;
68976;SDS011;56029;52.568;13.588;2023-03-01T01:36:09;16.45;;;7.72;;
68976;SDS011;56029;52.568;13.588;2023-03-01T01:38:35;16.48;;;7.47;;
68976;SDS011;56029;52.568;13.588;2023-03-01T01:41:02;17.02;;;7.38;;
68976;SDS011;56029;52.568;13.588;2023-03-01T01:43:29;15.60;;;7.30;;
68976;SDS011;56029;52.568;13.588;2023-03-01T01:46:06;14.45;;;6.65;;
68976;SDS011;56029;52.568;13.588;2023-03-01T01:48:44;16.00;;;7.53;;
68976;SDS011;56029;52.568;13.588;2023-03-01T01:51:14;17.70;;;6.83;;
68976;SDS011;56029;52.568;13.588;2023-03-01T01:53:43;15.43;;;6.78;;
68976;SDS011;56029;52.568;13.588;2023-03-01T01:56:11;15.48;;;6.93;;
68976;SDS011;56029;52.568;13.588;2023-03-01T01:58:39;16.63;;;6.72;;
68976;SDS011;56029;52.568;13.588;2023-03-01T02:01:07;15.73;;;6.75;;
68976;SDS011;56029;52.568;13.588;2023-03-01T02:03:33;14.00;;;6.90;;
68976;SDS011;56029;52.568;13.588;2023-03-01T02:08:49;13.95;;;6.90;;
68976;SDS011;56029;52.568;13.588;2023-03-01T02:11:17;15.23;;;6.93;;
68976;SDS011;56029;52.568;13.588;2023-03-01T02:13:44;14.50;;;6.82;;
68976;SDS011;56029;52.568;13.588;2023-03-01T02:16:11;15.77;;;7.18;;
68976;SDS011;56029;52.568;13.588;2023-03-01T02:18:40;14.57;;;6.38;;
68976;SDS011;56029;52.568;13.588;2023-03-01T02:21:29;14.38;;;7.05;;
68976;SDS011;56029;52.568;13.588;2023-03-01T02:24:37;15.83;;;6.97;;
68976;SDS011;56029;52.568;13.588;2023-03-01T02:27:10;17.08;;;6.78;;
68976;SDS011;56029;52.568;13.588;2023-03-01T02:29:36;16.02;;;7.05;;
68976;SDS011;56029;52.568;13.588;2023-03-01T02:32:02;15.17;;;6.80;;
68976;SDS011;56029;52.568;13.588;2023-03-01T02:34:28;14.82;;;6.57;;
68976;SDS011;56029;52.568;13.588;2023-03-01T02:36:58;16.73;;;6.72;;
68976;SDS011;56029;52.568;13.588;2023-03-01T02:39:33;14.80;;;6.38;;
68976;SDS011;56029;52.568;13.588;2023-03-01T02:42:14;15.45;;;7.18;;
68976;SDS011;56029;52.568;13.588;2023-03-01T02:44:43;13.93;;;6.83;;
68976;SDS011;56029;52.568;13.588;2023-03-01T02:47:09;14.82;;;6.88;;
68976;SDS011;56029;52.568;13.588;2023-03-01T02:49:36;15.13;;;6.60;;
68976;SDS011;56029;52.568;13.588;2023-03-01T02:52:21;16.85;;;7.15;;
68976;SDS011;56029;52.568;13.588;2023-03-01T02:57:25;16.15;;;6.65;;
68976;SDS011;56029;52.568;13.588;2023-03-01T02:59:52;16.25;;;7.40;;
68976;SDS011;56029;52.568;13.588;2023-03-01T03:02:21;13.97;;;6.30;;
68976;SDS011;56029;52.568;13.588;2023-03-01T03:05:12;15.00;;;6.60;;
68976;SDS011;56029;52.568;13.588;2023-03-01T03:07:43;16.17;;;7.40;;
68976;SDS011;56029;52.568;13.588;2023-03-01T03:10:13;13.80;;;6.07;;
68976;SDS011;56029;52.568;13.588;2023-03-01T03:13:06;16.25;;;6.78;;
68976;SDS011;56029;52.568;13.588;2023-03-01T03:15:34;14.67;;;6.83;;
68976;SDS011;56029;52.568;13.588;2023-03-01T03:18:01;14.95;;;6.65;;
68976;SDS011;56029;52.568;13.588;2023-03-01T03:20:28;15.65;;;6.40;;
68976;SDS011;56029;52.568;13.588;2023-03-01T03:22:55;17.23;;;6.68;;
68976;SDS011;56029;52.568;13.588;2023-03-01T03:25:23;14.45;;;6.60;;
68976;SDS011;56029;52.568;13.588;2023-03-01T03:27:50;15.07;;;6.50;;
68976;SDS011;56029;52.568;13.588;2023-03-01T03:30:22;15.40;;;6.63;;
68976;SDS011;56029;52.568;13.588;2023-03-01T03:32:49;13.75;;;6.45;;
68976;SDS011;56029;52.568;13.588;2023-03-01T03:35:22;15.10;;;6.55;;
68976;SDS011;56029;52.568;13.588;2023-03-01T03:37:50;15.27;;;6.45;;
68976;SDS011;56029;52.568;13.588;2023-03-01T03:40:29;15.13;;;7.00;;
68976;SDS011;56029;52.568;13.588;2023-03-01T03:42:55;13.95;;;6.18;;
68976;SDS011;56029;52.568;13.588;2023-03-01T03:45:20;13.83;;;6.10;;
68976;SDS011;56029;52.568;13.588;2023-03-01T03:47:46;13.73;;;6.07;;
68976;SDS011;56029;52.568;13.588;2023-03-01T03:50:13;15.30;;;6.40;;
68976;SDS011;56029;52.568;13.588;2023-03-01T03:52:39;12.90;;;5.82;;
68976;SDS011;56029;52.568;13.588;2023-03-01T03:55:06;14.63;;;6.30;;
68976;SDS011;56029;52.568;13.588;2023-03-01T03:57:36;14.48;;;6.45;;
68976;SDS011;56029;52.568;13.588;2023-03-01T04:00:03;13.20;;;6.13;;
68976;SDS011;56029;52.568;13.588;2023-03-01T04:02:30;13.57;;;5.70;;
68976;SDS011;56029;52.568;13.588;2023-03-01T04:04:56;15.63;;;5.80;;
68976;SDS011;56029;52.568;13.588;2023-03-01T04:07:22;14.77;;;6.13;;
68976;SDS011;56029;52.568;13.588;2023-03-01T04:09:47;13.98;;;5.82;;
68976;SDS011;56029;52.568;13.588;2023-03-01T04:12:13;14.88;;;6.10;;
68976;SDS011;56029;52.568;13.588;2023-03-01T04:14:38;14.30;;;6.00;;
68976;SDS011;56029;52.568;13.588;2023-03-01T04:17:04;13.75;;;6.40;;
68976;SDS011;56029;52.568;13.588;2023-03-01T04:19:33;13.73;;;5.80;;
68976;SDS011;56029;52.568;13.588;2023-03-01T04:22:02;13.95;;;5.95;;
68976;SDS011;56029;52.568;13.588;2023-03-01T04:24:34;14.38;;;6.35;;
68976;SDS011;56029;52.568;13.588;2023-03-01T04:27:01;15.32;;;6.85;;
68976;SDS011;56029;52.568;13.588;2023-03-01T04:29:27;16.83;;;7.07;;
68976;SDS011;56029;52.568;13.588;2023-03-01T04:31:53;15.77;;;6.72;;
68976;SDS011;56029;52.568;13.588;2023-03-01T04:34:18;15.47;;;6.90;;
68976;SDS011;56029;52.568;13.588;2023-03-01T04:36:44;15.85;;;6.63;;
68976;SDS011;56029;52.568;13.588;2023-03-01T04:39:09;14.23;;;6.10;;
68976;SDS011;56029;52.568;13.588;2023-03-01T04:41:38;15.90;;;7.05;;
68976;SDS011;56029;52.568;13.588;2023-03-01T04:44:04;15.75;;;7.07;;
68976;SDS011;56029;52.568;13.588;2023-03-01T04:46:31;16.58;;;7.45;;
68976;SDS011;56029;52.568;13.588;2023-03-01T04:48:56;16.58;;;7.57;;
68976;SDS011;56029;52.568;13.588;2023-03-01T04:51:22;15.03;;;6.43;;
68976;SDS011;56029;52.568;13.588;2023-03-01T04:53:47;14.53;;;5.93;;
68976;SDS011;56029;52.568;13.588;2023-03-01T04:56:13;13.88;;;6.47;;
68976;SDS011;56029;52.568;13.588;2023-03-01T04:58:39;12.30;;;6.17;;
68976;SDS011;56029;52.568;13.588;2023-03-01T05:01:09;13.60;;;6.32;;
68976;SDS011;56029;52.568;13.588;2023-03-01T05:03:40;14.30;;;6.35;;
68976;SDS011;56029;52.568;13.588;2023-03-01T05:06:09;13.00;;;6.28;;
68976;SDS011;56029;52.568;13.588;2023-03-01T05:08:36;13.63;;;5.85;;
68976;SDS011;56029;52.568;13.588;2023-03-01T05:11:02;13.32;;;6.10;;
68976;SDS011;56029;52.568;13.588;2023-03-01T05:13:28;15.75;;;6.45;;
68976;SDS011;56029;52.568;13.588;2023-03-01T05:15:55;14.13;;;5.82;;
68976;SDS011;56029;52.568;13.588;2023-03-01T05:18:23;15.93;;;6.60;;
68976;SDS011;56029;52.568;13.588;2023-03-01T05:21:01;14.50;;;6.00;;
68976;SDS011;56029;52.568;13.588;2023-03-01T05:23:32;15.45;;;6.50;;
68976;SDS011;56029;52.568;13.588;2023-03-01T05:25:59;13.52;;;6.07;;
68976;SDS011;56029;52.568;13.588;2023-03-01T05:28:26;16.35;;;6.40;;
68976;SDS011;56029;52.568;13.588;2023-03-01T05:30:53;12.73;;;5.95;;
68976;SDS011;56029;52.568;13.588;2023-03-01T05:33:19;15.00;;;5.90;;
68976;SDS011;56029;52.568;13.588;2023-03-01T05:35:47;15.60;;;6.53;;
68976;SDS011;56029;52.568;13.588;2023-03-01T05:38:14;14.10;;;6.15;;
68976;SDS011;56029;52.568;13.588;2023-03-01T05:40:44;15.88;;;6.82;;
68976;SDS011;56029;52.568;13.588;2023-03-01T05:43:11;16.20;;;7.25;;
68976;SDS011;56029;52.568;13.588;2023-03-01T05:45:38;15.53;;;6.90;;
68976;SDS011;56029;52.568;13.588;2023-03-01T05:48:06;14.95;;;7.18;;
68976;SDS011;56029;52.568;13.588;2023-03-01T05:50:34;16.60;;;7.28;;
68976;SDS011;56029;52.568;13.588;2023-03-01T05:55:28;17.53;;;7.87;;
68976;SDS011;56029;52.568;13.588;2023-03-01T05:57:57;18.30;;;7.55;;
68976;SDS011;56029;52.568;13.588;2023-03-01T06:00:23;16.15;;;7.72;;
68976;SDS011;56029;52.568;13.588;2023-03-01T06:02:49;16.73;;;7.43;;
68976;SDS011;56029;52.568;13.588;2023-03-01T06:05:17;17.73;;;8.50;;
68976;SDS011;56029;52.568;13.588;2023-03-01T06:07:42;17.58;;;7.80;;
68976;SDS011;56029;52.568;13.588;2023-03-01T06:10:10;19.60;;;8.20;;
68976;SDS011;56029;52.568;13.588;2023-03-01T06:12:37;18.55;;;7.35;;
68976;SDS011;56029;52.568;13.588;2023-03-01T06:15:04;17.75;;;7.85;;
68976;SDS011;56029;52.568;13.588;2023-03-01T06:17:31;16.38;;;7.10;;
68976;SDS011;56029;52.568;13.588;2023-03-01T06:19:58;17.35;;;7.72;;
68976;SDS011;56029;52.568;13.588;2023-03-01T06:22:23;14.47;;;7.33;;
68976;SDS011;56029;52.568;13.588;2023-03-01T06:24:49;16.13;;;7.13;;
68976;SDS011;56029;52.568;13.588;2023-03-01T06:27:15;15.40;;;7.65;;
68976;SDS011;56029;52.568;13.588;2023-03-01T06:29:41;16.90;;;7.63;;
68976;SDS011;56029;52.568;13.588;2023-03-01T06:32:06;16.43;;;7.77;;
68976;SDS011;56029;52.568;13.588;2023-03-01T06:34:33;15.98;;;7.75;;
68976;SDS011;56029;52.568;13.588;2023-03-01T06:36:58;15.43;;;6.93;;
68976;SDS011;56029;52.568;13.588;2023-03-01T06:39:24;18.53;;;7.13;;
68976;SDS011;56029;52.568;13.588;2023-03-01T06:41:50;15.82;;;7.30;;
68976;SDS011;56029;52.568;13.588;2023-03-01T06:44:15;16.17;;;7.10;;
68976;SDS011;56029;52.568;13.588;2023-03-01T06:46:41;16.43;;;7.53;;
68976;SDS011;56029;52.568;13.588;2023-03-01T06:49:06;16.52;;;7.22;;
68976;SDS011;56029;52.568;13.588;2023-03-01T06:51:35;15.10;;;6.80;;
68976;SDS011;56029;52.568;13.588;2023-03-01T06:54:02;16.75;;;7.80;;
68976;SDS011;56029;52.568;13.588;2023-03-01T06:56:29;15.88;;;7.00;;
68976;SDS011;56029;52.568;13.588;2023-03-01T06:58:55;14.18;;;6.63;;
68976;SDS011;56029;52.568;13.588;2023-03-01T07:01:20;15.70;;;7.43;;
68976;SDS011;56029;52.568;13.588;2023-03-01T07:03:46;15.50;;;7.32;;
68976;SDS011;56029;52.568;13.588;2023-03-01T07:06:11;15.77;;;7.30;;
68976;SDS011;56029;52.568;13.588;2023-03-01T07:08:37;16.33;;;7.70;;
68976;SDS011;56029;52.568;13.588;2023-03-01T07:11:02;16.63;;;7.33;;
68976;SDS011;56029;52.568;13.588;2023-03-01T07:13:29;17.50;;;8.07;;
68976;SDS011;56029;52.568;13.588;2023-03-01T07:15:55;16.30;;;8.48;;
68976;SDS011;56029;52.568;13.588;2023-03-01T07:18:21;18.03;;;8.07;;
68976;SDS011;56029;52.568;13.588;2023-03-01T07:20:46;17.88;;;8.90;;
68976;SDS011;56029;52.568;13.588;2023-03-01T07:23:12;16.98;;;8.93;;
68976;SDS011;56029;52.568;13.588;2023-03-01T07:25:38;18.92;;;9.30;;
68976;SDS011;56029;52.568;13.588;2023-03-01T07:28:04;33.87;;;18.17;;
68976;SDS011;56029;52.568;13.588;2023-03-01T07:30:29;31.25;;;16.75;;
68976;SDS011;56029;52.568;13.588;2023-03-01T07:32:55;29.40;;;15.87;;
68976;SDS011;56029;52.568;13.588;2023-03-01T07:35:22;25.23;;;12.75;;
68976;SDS011;56029;52.568;13.588;2023-03-01T07:37:50;23.60;;;12.35;;
68976;SDS011;56029;52.568;13.588;2023-03-01T07:40:15;22.43;;;12.53;;
68976;SDS011;56029;52.568;13.588;2023-03-01T07:42:41;26.85;;;12.90;;
68976;SDS011;56029;52.568;13.588;2023-03-01T07:45:07;22.87;;;13.10;;
68976;SDS011;56029;52.568;13.588;2023-03-01T07:47:33;29.15;;;17.63;;
68976;SDS011;56029;52.568;13.588;2023-03-01T07:49:58;26.67;;;14.87;;
68976;SDS011;56029;52.568;13.588;2023-03-01T07:52:24;26.58;;;12.40;;
68976;SDS011;56029;52.568;13.588;2023-03-01T07:54:50;22.33;;;12.37;;
68976;SDS011;56029;52.568;13.588;2023-03-01T07:57:15;23.98;;;12.35;;
68976;SDS011;56029;52.568;13.588;2023-03-01T07:59:41;25.43;;;12.87;;
68976;SDS011;56029;52.568;13.588;2023-03-01T08:02:07;21.90;;;10.68;;
68976;SDS011;56029;52.568;13.588;2023-03-01T08:04:33;20.10;;;9.95;;
68976;SDS011;56029;52.568;13.588;2023-03-01T08:06:59;21.50;;;9.93;;
68976;SDS011;56029;52.568;13.588;2023-03-01T08:09:24;20.70;;;10.27;;
68976;SDS011;56029;52.568;13.588;2023-03-01T08:11:50;19.27;;;9.85;;
68976;SDS011;56029;52.568;13.588;2023-03-01T08:14:16;18.55;;;9.60;;
68976;SDS011;56029;52.568;13.588;2023-03-01T08:16:42;17.35;;;9.27;;
68976;SDS011;56029;52.568;13.588;2023-03-01T08:19:09;19.67;;;9.40;;
68976;SDS011;56029;52.568;13.588;2023-03-01T08:21:37;17.38;;;9.30;;
68976;SDS011;56029;52.568;13.588;2023-03-01T08:24:11;17.27;;;8.95;;
68976;SDS011;56029;52.568;13.588;2023-03-01T08:26:37;16.70;;;8.02;;
68976;SDS011;56029;52.568;13.588;2023-03-01T08:29:03;18.67;;;9.17;;
68976;SDS011;56029;52.568;13.588;2023-03-01T08:31:30;15.60;;;7.60;;
68976;SDS011;56029;52.568;13.588;2023-03-01T08:33:59;15.38;;;8.00;;
68976;SDS011;56029;52.568;13.588;2023-03-01T08:36:27;15.93;;;7.83;;
68976;SDS011;56029;52.568;13.588;2023-03-01T08:38:57;13.43;;;6.82;;
68976;SDS011;56029;52.568;13.588;2023-03-01T08:41:23;13.80;;;6.43;;
68976;SDS011;56029;52.568;13.588;2023-03-01T08:43:49;12.67;;;5.57;;
68976;SDS011;56029;52.568;13.588;2023-03-01T08:46:15;12.38;;;5.40;;
68976;SDS011;56029;52.568;13.588;2023-03-01T08:48:40;12.80;;;5.40;;
68976;SDS011;56029;52.568;13.588;2023-03-01T08:51:13;10.48;;;5.03;;
68976;SDS011;56029;52.568;13.588;2023-03-01T08:53:40;10.88;;;4.50;;
68976;SDS011;56029;52.568;13.588;2023-03-01T08:56:06;8.90;;;4.20;;
68976;SDS011;56029;52.568;13.588;2023-03-01T08:58:33;8.35;;;4.35;;
68976;SDS011;56029;52.568;13.588;2023-03-01T09:00:59;9.77;;;4.53;;
68976;SDS011;56029;52.568;13.588;2023-03-01T09:03:25;11.38;;;4.88;;
68976;SDS011;56029;52.568;13.588;2023-03-01T09:05:52;10.07;;;4.30;;
68976;SDS011;56029;52.568;13.588;2023-03-01T09:08:18;9.52;;;4.75;;
68976;SDS011;56029;52.568;13.588;2023-03-01T09:10:45;11.60;;;4.53;;
68976;SDS011;56029;52.568;13.588;2023-03-01T09:13:11;8.88;;;4.10;;
68976;SDS011;56029;52.568;13.588;2023-03-01T09:15:37;8.85;;;4.00;;
68976;SDS011;56029;52.568;13.588;2023-03-01T09:18:03;10.13;;;4.40;;
68976;SDS011;56029;52.568;13.588;2023-03-01T09:20:30;11.95;;;4.75;;
68976;SDS011;56029;52.568;13.588;2023-03-01T09:22:56;9.17;;;4.13;;
68976;SDS011;56029;52.568;13.588;2023-03-01T09:25:22;8.15;;;4.20;;
68976;SDS011;56029;52.568;13.588;2023-03-01T09:27:50;7.77;;;3.83;;
68976;SDS011;56029;52.568;13.588;2023-03-01T09:30:17;9.15;;;4.38;;
68976;SDS011;56029;52.568;13.588;2023-03-01T09:32:42;10.43;;;4.00;;
68976;SDS011;56029;52.568;13.588;2023-03-01T09:35:10;8.60;;;3.90;;
68976;SDS011;56029;52.568;13.588;2023-03-01T09:37:36;8.87;;;4.00;;
68976;SDS011;56029;52.568;13.588;2023-03-01T09:40:03;8.82;;;3.75;;
68976;SDS011;56029;52.568;13.588;2023-03-01T09:42:31;9.68;;;3.42;;
68976;SDS011;56029;52.568;13.588;2023-03-01T09:45:11;10.50;;;4.25;;
68976;SDS011;56029;52.568;13.588;2023-03-01T09:47:47;7.93;;;3.83;;
68976;SDS011;56029;52.568;13.588;2023-03-01T09:50:20;9.23;;;3.97;;
68976;SDS011;56029;52.568;13.588;2023-03-01T09:55:44;11.25;;;4.20;;
68976;SDS011;56029;52.568;13.588;2023-03-01T09:58:34;9.13;;;4.50;;
68976;SDS011;56029;52.568;13.588;2023-03-01T10:01:23;10.90;;;6.22;;
68976;SDS011;56029;52.568;13.588;2023-03-01T10:04:02;8.50;;;4.20;;
68976;SDS011;56029;52.568;13.588;2023-03-01T10:06:36;9.02;;;3.97;;
68976;SDS011;56029;52.568;13.588;2023-03-01T10:09:22;7.45;;;3.85;;
68976;SDS011;56029;52.568;13.588;2023-03-01T10:11:52;9.05;;;4.32;;
68976;SDS011;56029;52.568;13.588;2023-03-01T10:14:27;6.72;;;2.65;;
68976;SDS011;56029;52.568;13.588;2023-03-01T10:16:58;8.13;;;2.97;;
68976;SDS011;56029;52.568;13.588;2023-03-01T10:19:47;8.38;;;3.80;;
68976;SDS011;56029;52.568;13.588;2023-03-01T10:22:15;8.35;;;3.60;;
68976;SDS011;56029;52.568;13.588;2023-03-01T10:24:46;8.07;;;3.55;;
68976;SDS011;56029;52.568;13.588;2023-03-01T10:29:56;8.60;;;4.00;;
68976;SDS011;56029;52.568;13.588;2023-03-01T10:32:28;11.00;;;3.97;;
68976;SDS011;56029;52.568;13.588;2023-03-01T10:34:54;9.07;;;3.80;;
68976;SDS011;56029;52.568;13.588;2023-03-01T10:37:20;8.02;;;3.60;;
68976;SDS011;56029;52.568;13.588;2023-03-01T10:39:58;9.43;;;3.70;;
68976;SDS011;56029;52.568;13.588;2023-03-01T10:42:45;8.32;;;3.53;;
68976;SDS011;56029;52.568;13.588;2023-03-01T10:47:47;8.82;;;3.70;;
68976;SDS011;56029;52.568;13.588;2023-03-01T10:50:28;8.90;;;3.40;;
68976;SDS011;56029;52.568;13.588;2023-03-01T10:52:58;8.27;;;3.43;;
68976;SDS011;56029;52.568;13.588;2023-03-01T10:55:35;8.05;;;3.47;;
68976;SDS011;56029;52.568;13.588;2023-03-01T10:58:06;8.23;;;3.50;;
68976;SDS011;56029;52.568;13.588;2023-03-01T11:00:33;8.27;;;3.40;;
68976;SDS011;56029;52.568;13.588;2023-03-01T11:03:12;7.70;;;3.07;;
68976;SDS011;56029;52.568;13.588;2023-03-01T11:05:50;9.07;;;3.90;;
68976;SDS011;56029;52.568;13.588;2023-03-01T11:11:05;7.75;;;3.38;;
68976;SDS011;56029;52.568;13.588;2023-03-01T11:13:58;7.38;;;3.17;;
68976;SDS011;56029;52.568;13.588;2023-03-01T11:16:39;6.40;;;2.83;;
68976;SDS011;56029;52.568;13.588;2023-03-01T11:21:40;7.43;;;3.70;;
68976;SDS011;56029;52.568;13.588;2023-03-01T11:24:10;7.90;;;3.42;;
68976;SDS011;56029;52.568;13.588;2023-03-01T11:26:39;8.48;;;3.72;;
68976;SDS011;56029;52.568;13.588;2023-03-01T11:29:12;7.90;;;3.47;;
68976;SDS011;56029;52.568;13.588;2023-03-01T11:31:48;7.90;;;3.42;;
68976;SDS011;56029;52.568;13.588;2023-03-01T11:34:17;7.13;;;3.00;;
68976;SDS011;56029;52.568;13.588;2023-03-01T11:36:54;8.65;;;3.47;;
68976;SDS011;56029;52.568;13.588;2023-03-01T11:39:34;8.10;;;3.58;;
68976;SDS011;56029;52.568;13.588;2023-03-01T11:42:12;6.40;;;2.90;;
68976;SDS011;56029;52.568;13.588;2023-03-01T11:44:43;6.72;;;2.95;;
68976;SDS011;56029;52.568;13.588;2023-03-01T11:47:15;7.22;;;3.17;;
68976;SDS011;56029;52.568;13.588;2023-03-01T11:52:41;7.07;;;2.95;;
68976;SDS011;56029;52.568;13.588;2023-03-01T11:55:30;7.10;;;2.80;;
68976;SDS011;56029;52.568;13.588;2023-03-01T12:01:24;7.55;;;3.50;;
68976;SDS011;56029;52.568;13.588;2023-03-01T12:06:49;6.30;;;2.97;;
68976;SDS011;56029;52.568;13.588;2023-03-01T12:23:08;5.67;;;2.77;;
68976;SDS011;56029;52.568;13.588;2023-03-01T12:28:44;8.85;;;3.50;;
68976;SDS011;56029;52.568;13.588;2023-03-01T12:37:03;7.50;;;3.10;;
68976;SDS011;56029;52.568;13.588;2023-03-01T12:39:45;6.85;;;3.30;;
68976;SDS011;56029;52.568;13.588;2023-03-01T12:42:31;6.10;;;2.97;;
68976;SDS011;56029;52.568;13.588;2023-03-01T12:45:26;7.68;;;2.90;;
68976;SDS011;56029;52.568;13.588;2023-03-01T12:51:23;6.57;;;2.90;;
68976;SDS011;56029;52.568;13.588;2023-03-01T12:53:54;7.53;;;3.42;;
68976;SDS011;56029;52.568;13.588;2023-03-01T12:56:23;7.10;;;3.20;;
68976;SDS011;56029;52.568;13.588;2023-03-01T12:58:54;8.07;;;3.30;;
68976;SDS011;56029;52.568;13.588;2023-03-01T13:01:32;7.53;;;3.45;;
68976;SDS011;56029;52.568;13.588;2023-03-01T13:04:19;9.60;;;4.20;;
68976;SDS011;56029;52.568;13.588;2023-03-01T13:07:02;8.13;;;3.50;;
68976;SDS011;56029;52.568;13.588;2023-03-01T13:15:42;5.82;;;3.08;;
68976;SDS011;56029;52.568;13.588;2023-03-01T13:18:03;7.50;;;3.60;;
68976;SDS011;56029;52.568;13.588;2023-03-01T13:20:51;6.55;;;2.85;;
68976;SDS011;56029;52.568;13.588;2023-03-01T13:31:01;6.38;;;3.28;;
68976;SDS011;56029;52.568;13.588;2023-03-01T13:35:58;6.18;;;3.10;;
68976;SDS011;56029;52.568;13.588;2023-03-01T13:38:37;8.23;;;4.45;;
68976;SDS011;56029;52.568;13.588;2023-03-01T13:41:06;6.35;;;3.03;;
68976;SDS011;56029;52.568;13.588;2023-03-01T13:43:36;8.43;;;3.50;;
68976;SDS011;56029;52.568;13.588;2023-03-01T13:46:09;7.07;;;3.40;;
68976;SDS011;56029;52.568;13.588;2023-03-01T13:48:37;6.97;;;2.90;;
68976;SDS011;56029;52.568;13.588;2023-03-01T13:51:04;7.03;;;3.33;;
68976;SDS011;56029;52.568;13.588;2023-03-01T13:53:34;7.22;;;3.10;;
68976;SDS011;56029;52.568;13.588;2023-03-01T13:56:17;5.85;;;2.60;;
68976;SDS011;56029;52.568;13.588;2023-03-01T13:58:51;5.77;;;2.50;;
68976;SDS011;56029;52.568;13.588;2023-03-01T14:03:50;6.88;;;2.75;;
68976;SDS011;56029;52.568;13.588;2023-03-01T14:06:17;6.30;;;2.67;;
68976;SDS011;56029;52.568;13.588;2023-03-01T14:08:46;4.50;;;2.33;;
68976;SDS011;56029;52.568;13.588;2023-03-01T14:14:03;5.72;;;2.53;;
68976;SDS011;56029;52.568;13.588;2023-03-01T14:16:49;6.38;;;2.72;;
68976;SDS011;56029;52.568;13.588;2023-03-01T14:19:28;4.73;;;2.00;;
68976;SDS011;56029;52.568;13.588;2023-03-01T14:24:52;4.50;;;2.00;;
68976;SDS011;56029;52.568;13.588;2023-03-01T14:27:20;4.88;;;2.05;;
68976;SDS011;56029;52.568;13.588;2023-03-01T14:29:54;4.18;;;2.00;;
68976;SDS011;56029;52.568;13.588;2023-03-01T14:32:23;4.37;;;2.13;;
68976;SDS011;56029;52.568;13.588;2023-03-01T14:34:51;6.97;;;2.30;;
68976;SDS011;56029;52.568;13.588;2023-03-01T14:37:22;5.53;;;2.20;;
68976;SDS011;56029;52.568;13.588;2023-03-01T14:39:50;5.27;;;2.33;;
68976;SDS011;56029;52.568;13.588;2023-03-01T14:42:16;4.00;;;1.80;;
68976;SDS011;56029;52.568;13.588;2023-03-01T14:44:44;5.03;;;1.92;;
68976;SDS011;56029;52.568;13.588;2023-03-01T14:47:14;5.03;;;2.10;;
68976;SDS011;56029;52.568;13.588;2023-03-01T14:49:44;4.55;;;1.98;;
68976;SDS011;56029;52.568;13.588;2023-03-01T14:52:22;4.23;;;2.00;;
68976;SDS011;56029;52.568;13.588;2023-03-01T14:54:55;5.55;;;2.13;;
68976;SDS011;56029;52.568;13.588;2023-03-01T14:57:22;3.37;;;1.90;;
68976;SDS011;56029;52.568;13.588;2023-03-01T14:59:51;4.75;;;2.20;;
68976;SDS011;56029;52.568;13.588;2023-03-01T15:02:20;5.70;;;2.63;;
68976;SDS011;56029;52.568;13.588;2023-03-01T15:04:49;4.90;;;2.00;;
68976;SDS011;56029;52.568;13.588;2023-03-01T15:07:17;5.25;;;2.20;;
68976;SDS011;56029;52.568;13.588;2023-03-01T15:09:44;4.45;;;1.90;;
68976;SDS011;56029;52.568;13.588;2023-03-01T15:14:57;5.55;;;2.38;;
68976;SDS011;56029;52.568;13.588;2023-03-01T15:17:35;3.83;;;2.30;;
68976;SDS011;56029;52.568;13.588;2023-03-01T15:20:13;5.90;;;2.17;;
68976;SDS011;56029;52.568;13.588;2023-03-01T15:22:45;5.18;;;2.45;;
68976;SDS011;56029;52.568;13.588;2023-03-01T15:25:14;5.95;;;2.40;;
68976;SDS011;56029;52.568;13.588;2023-03-01T15:27:45;5.97;;;2.60;;
68976;SDS011;56029;52.568;13.588;2023-03-01T15:30:44;5.50;;;2.60;;
68976;SDS011;56029;52.568;13.588;2023-03-01T15:33:15;6.40;;;2.35;;
68976;SDS011;56029;52.568;13.588;2023-03-01T15:35:45;4.95;;;2.47;;
68976;SDS011;56029;52.568;13.588;2023-03-01T15:41:05;6.22;;;2.38;;
68976;SDS011;56029;52.568;13.588;2023-03-01T15:43:47;5.70;;;2.73;;
68976;SDS011;56029;52.568;13.588;2023-03-01T15:46:22;5.13;;;2.33;;
68976;SDS011;56029;52.568;13.588;2023-03-01T15:48:58;4.93;;;2.35;;
68976;SDS011;56029;52.568;13.588;2023-03-01T15:51:30;6.70;;;2.80;;
68976;SDS011;56029;52.568;13.588;2023-03-01T15:53:59;5.15;;;2.42;;
68976;SDS011;56029;52.568;13.588;2023-03-01T15:56:27;6.37;;;2.60;;
68976;SDS011;56029;52.568;13.588;2023-03-01T15:58:52;5.85;;;2.80;;
68976;SDS011;56029;52.568;13.588;2023-03-01T16:01:18;6.53;;;2.40;;
68976;SDS011;56029;52.568;13.588;2023-03-01T16:03:44;6.35;;;2.50;;
68976;SDS011;56029;52.568;13.588;2023-03-01T16:06:10;7.13;;;2.80;;
68976;SDS011;56029;52.568;13.588;2023-03-01T16:08:36;6.18;;;2.40;;